sensor_id;sensor_type;location;lat;lon;timestamp;pressure;altitude;pressure_sealevel;temperature;humidity
34205;BME280;20471;49.680;20.074;2022-11-03T00:01:57;97878.74;;;9.33;72.05
34205;BME280;20471;49.680;20.074;2022-11-03T00:04:24;97887.09;;;9.27;72.07
34205;BME280;20471;49.680;20.074;2022-11-03T00:06:53;97885.94;;;9.26;72.05
34205;BME280;20471;49.680;20.074;2022-11-03T00:09:21;97891.05;;;9.21;72.02
34205;BME280;20471;49.680;20.074;2022-11-03T00:11:49;97891.13;;;9.17;71.86
34205;BME280;20471;49.680;20.074;2022-11-03T00:14:17;97891.04;;;9.10;71.73
34205;BME280;20471;49.680;20.074;2022-11-03T00:16:44;97899.11;;;8.99;71.93
34205;BME280;20471;49.680;20.074;2022-11-03T00:19:12;97902.75;;;8.92;72.00
34205;BME280;20471;49.680;20.074;2022-11-03T00:21:40;97906.77;;;8.81;71.96
34205;BME280;20471;49.680;20.074;2022-11-03T00:24:07;97912.23;;;8.73;72.04
34205;BME280;20471;49.680;20.074;2022-11-03T00:26:35;97910.16;;;8.64;71.99
34205;BME280;20471;49.680;20.074;2022-11-03T00:29:10;97907.00;;;8.61;72.23
34205;BME280;20471;49.680;20.074;2022-11-03T00:31:40;97910.02;;;8.62;72.31
34205;BME280;20471;49.680;20.074;2022-11-03T00:34:09;97918.86;;;8.56;72.22
34205;BME280;20471;49.680;20.074;2022-11-03T00:36:40;97918.23;;;8.50;72.28
34205;BME280;20471;49.680;20.074;2022-11-03T00:39:08;97915.03;;;8.50;72.38
34205;BME280;20471;49.680;20.074;2022-11-03T00:41:36;97907.47;;;8.50;72.54
34205;BME280;20471;49.680;20.074;2022-11-03T00:44:03;97899.51;;;8.42;72.36
34205;BME280;20471;49.680;20.074;2022-11-03T00:46:30;97908.92;;;8.42;72.38
34205;BME280;20471;49.680;20.074;2022-11-03T00:48:58;97909.97;;;8.37;72.29
34205;BME280;20471;49.680;20.074;2022-11-03T00:51:26;97904.84;;;8.27;72.37
34205;BME280;20471;49.680;20.074;2022-11-03T00:53:57;97911.75;;;8.25;72.45
34205;BME280;20471;49.680;20.074;2022-11-03T00:56:27;97908.58;;;8.22;72.42
34205;BME280;20471;49.680;20.074;2022-11-03T00:58:57;97908.20;;;8.10;72.30
34205;BME280;20471;49.680;20.074;2022-11-03T01:01:27;97912.30;;;8.06;72.35
34205;BME280;20471;49.680;20.074;2022-11-03T01:04:03;97916.66;;;8.07;72.53
34205;BME280;20471;49.680;20.074;2022-11-03T01:06:49;97914.50;;;8.03;72.37
34205;BME280;20471;49.680;20.074;2022-11-03T01:14:49;97910.70;;;7.78;72.03
34205;BME280;20471;49.680;20.074;2022-11-03T01:17:22;97912.80;;;7.68;72.16
34205;BME280;20471;49.680;20.074;2022-11-03T01:19:51;97915.34;;;7.66;72.18
34205;BME280;20471;49.680;20.074;2022-11-03T01:22:19;97904.61;;;7.62;72.16
34205;BME280;20471;49.680;20.074;2022-11-03T01:24:45;97908.56;;;7.51;72.14
34205;BME280;20471;49.680;20.074;2022-11-03T01:27:16;97907.45;;;7.45;72.15
34205;BME280;20471;49.680;20.074;2022-11-03T01:29:43;97903.09;;;7.44;72.16
34205;BME280;20471;49.680;20.074;2022-11-03T01:32:10;97917.88;;;7.40;72.16
34205;BME280;20471;49.680;20.074;2022-11-03T01:34:37;97922.47;;;7.36;72.20
34205;BME280;20471;49.680;20.074;2022-11-03T01:37:04;97922.05;;;7.24;72.12
34205;BME280;20471;49.680;20.074;2022-11-03T01:39:31;97922.06;;;7.20;72.37
34205;BME280;20471;49.680;20.074;2022-11-03T01:41:58;97922.89;;;7.20;72.40
34205;BME280;20471;49.680;20.074;2022-11-03T01:47:02;97922.30;;;7.06;72.40
34205;BME280;20471;49.680;20.074;2022-11-03T01:49:41;97915.14;;;6.99;72.36
34205;BME280;20471;49.680;20.074;2022-11-03T01:54:43;97914.33;;;6.90;72.54
34205;BME280;20471;49.680;20.074;2022-11-03T01:57:14;97923.59;;;6.88;72.60
34205;BME280;20471;49.680;20.074;2022-11-03T01:59:44;97916.72;;;6.85;72.40
34205;BME280;20471;49.680;20.074;2022-11-03T02:02:12;97920.27;;;6.77;72.45
34205;BME280;20471;49.680;20.074;2022-11-03T02:04:39;97918.59;;;6.76;72.42
34205;BME280;20471;49.680;20.074;2022-11-03T02:09:44;97922.48;;;6.74;72.51
34205;BME280;20471;49.680;20.074;2022-11-03T02:12:13;97920.98;;;6.71;72.38
34205;BME280;20471;49.680;20.074;2022-11-03T02:14:43;97917.63;;;6.65;72.31
34205;BME280;20471;49.680;20.074;2022-11-03T02:17:12;97910.47;;;6.58;72.46
34205;BME280;20471;49.680;20.074;2022-11-03T02:19:44;97911.14;;;6.56;72.55
34205;BME280;20471;49.680;20.074;2022-11-03T02:25:41;97909.30;;;6.52;72.46
34205;BME280;20471;49.680;20.074;2022-11-03T02:28:34;97911.86;;;6.41;72.29
34205;BME280;20471;49.680;20.074;2022-11-03T02:33:54;97916.28;;;6.26;72.21
34205;BME280;20471;49.680;20.074;2022-11-03T02:39:35;97923.49;;;6.18;72.30
34205;BME280;20471;49.680;20.074;2022-11-03T02:42:08;97919.16;;;6.12;72.39
34205;BME280;20471;49.680;20.074;2022-11-03T02:44:37;97918.16;;;6.09;72.39
34205;BME280;20471;49.680;20.074;2022-11-03T02:47:07;97912.63;;;6.07;72.30
34205;BME280;20471;49.680;20.074;2022-11-03T02:49:52;97917.52;;;6.03;72.24
34205;BME280;20471;49.680;20.074;2022-11-03T02:55:24;97920.21;;;5.91;72.26
34205;BME280;20471;49.680;20.074;2022-11-03T03:00:22;97928.53;;;5.80;72.21
34205;BME280;20471;49.680;20.074;2022-11-03T03:05:23;97928.38;;;5.73;72.15
34205;BME280;20471;49.680;20.074;2022-11-03T03:07:55;97934.23;;;5.69;72.16
34205;BME280;20471;49.680;20.074;2022-11-03T03:10:25;97929.55;;;5.59;72.05
34205;BME280;20471;49.680;20.074;2022-11-03T03:12:56;97929.08;;;5.55;72.30
34205;BME280;20471;49.680;20.074;2022-11-03T03:15:44;97933.42;;;5.52;72.49
34205;BME280;20471;49.680;20.074;2022-11-03T03:18:22;97931.58;;;5.53;72.63
34205;BME280;20471;49.680;20.074;2022-11-03T03:21:00;97935.59;;;5.53;72.68
34205;BME280;20471;49.680;20.074;2022-11-03T03:23:34;97934.75;;;5.52;72.75
34205;BME280;20471;49.680;20.074;2022-11-03T03:28:46;97942.12;;;5.42;72.82
34205;BME280;20471;49.680;20.074;2022-11-03T03:31:17;97941.44;;;5.40;72.79
34205;BME280;20471;49.680;20.074;2022-11-03T03:33:46;97943.28;;;5.39;72.93
34205;BME280;20471;49.680;20.074;2022-11-03T03:36:16;97936.73;;;5.34;72.77
34205;BME280;20471;49.680;20.074;2022-11-03T03:41:18;97941.23;;;5.21;72.95
34205;BME280;20471;49.680;20.074;2022-11-03T03:43:50;97935.03;;;5.13;72.98
34205;BME280;20471;49.680;20.074;2022-11-03T03:46:20;97936.21;;;5.14;73.11
34205;BME280;20471;49.680;20.074;2022-11-03T03:48:48;97937.05;;;5.15;73.07
34205;BME280;20471;49.680;20.074;2022-11-03T03:51:16;97935.52;;;5.08;73.01
34205;BME280;20471;49.680;20.074;2022-11-03T03:53:50;97929.16;;;5.01;73.18
34205;BME280;20471;49.680;20.074;2022-11-03T03:58:55;97934.66;;;4.91;73.04
34205;BME280;20471;49.680;20.074;2022-11-03T04:01:22;97932.30;;;4.88;73.14
34205;BME280;20471;49.680;20.074;2022-11-03T04:03:48;97932.11;;;4.86;73.19
34205;BME280;20471;49.680;20.074;2022-11-03T04:06:15;97937.47;;;4.86;73.11
34205;BME280;20471;49.680;20.074;2022-11-03T04:08:41;97935.45;;;4.84;72.97
34205;BME280;20471;49.680;20.074;2022-11-03T04:11:08;97930.59;;;4.83;72.93
34205;BME280;20471;49.680;20.074;2022-11-03T04:13:53;97924.73;;;4.76;72.87
34205;BME280;20471;49.680;20.074;2022-11-03T04:16:38;97922.22;;;4.70;73.02
34205;BME280;20471;49.680;20.074;2022-11-03T04:19:23;97921.70;;;4.66;73.04
34205;BME280;20471;49.680;20.074;2022-11-03T04:22:08;97921.31;;;4.53;73.05
34205;BME280;20471;49.680;20.074;2022-11-03T04:32:29;97926.92;;;4.34;73.35
34205;BME280;20471;49.680;20.074;2022-11-03T04:34:57;97920.89;;;4.32;73.37
34205;BME280;20471;49.680;20.074;2022-11-03T04:37:27;97921.36;;;4.27;73.34
34205;BME280;20471;49.680;20.074;2022-11-03T04:39:57;97912.47;;;4.23;73.41
34205;BME280;20471;49.680;20.074;2022-11-03T04:42:26;97912.47;;;4.23;73.47
34205;BME280;20471;49.680;20.074;2022-11-03T04:45:00;97915.14;;;4.19;73.53
34205;BME280;20471;49.680;20.074;2022-11-03T04:47:26;97919.61;;;4.10;73.47
34205;BME280;20471;49.680;20.074;2022-11-03T04:49:54;97921.44;;;4.10;73.56
34205;BME280;20471;49.680;20.074;2022-11-03T04:52:21;97922.59;;;4.11;73.66
34205;BME280;20471;49.680;20.074;2022-11-03T04:54:49;97927.41;;;4.04;73.57
34205;BME280;20471;49.680;20.074;2022-11-03T04:57:18;97928.39;;;4.03;73.70
34205;BME280;20471;49.680;20.074;2022-11-03T04:59:46;97920.87;;;4.02;73.59
34205;BME280;20471;49.680;20.074;2022-11-03T05:02:18;97914.69;;;3.97;73.57
34205;BME280;20471;49.680;20.074;2022-11-03T05:04:45;97910.84;;;3.96;73.54
34205;BME280;20471;49.680;20.074;2022-11-03T05:07:32;97914.20;;;3.98;73.70
34205;BME280;20471;49.680;20.074;2022-11-03T05:10:00;97916.64;;;3.91;73.74
34205;BME280;20471;49.680;20.074;2022-11-03T05:12:29;97914.27;;;3.84;73.81
34205;BME280;20471;49.680;20.074;2022-11-03T05:14:55;97919.77;;;3.83;73.95
34205;BME280;20471;49.680;20.074;2022-11-03T05:17:24;97924.45;;;3.85;74.04
34205;BME280;20471;49.680;20.074;2022-11-03T05:20:00;97927.97;;;3.85;73.87
34205;BME280;20471;49.680;20.074;2022-11-03T05:22:32;97921.29;;;3.85;73.75
34205;BME280;20471;49.680;20.074;2022-11-03T05:25:33;97930.94;;;3.82;73.70
34205;BME280;20471;49.680;20.074;2022-11-03T05:27:54;97928.87;;;3.76;73.68
34205;BME280;20471;49.680;20.074;2022-11-03T05:30:21;97926.89;;;3.74;73.79
34205;BME280;20471;49.680;20.074;2022-11-03T05:32:48;97929.87;;;3.75;73.76
34205;BME280;20471;49.680;20.074;2022-11-03T05:35:22;97928.37;;;3.77;73.78
34205;BME280;20471;49.680;20.074;2022-11-03T05:37:49;97927.70;;;3.75;73.62
34205;BME280;20471;49.680;20.074;2022-11-03T05:40:23;97923.53;;;3.72;73.63
34205;BME280;20471;49.680;20.074;2022-11-03T05:42:55;97926.35;;;3.71;73.69
34205;BME280;20471;49.680;20.074;2022-11-03T05:47:57;97931.30;;;3.61;73.84
34205;BME280;20471;49.680;20.074;2022-11-03T05:50:26;97929.77;;;3.59;73.84
34205;BME280;20471;49.680;20.074;2022-11-03T05:52:56;97926.06;;;3.56;73.82
34205;BME280;20471;49.680;20.074;2022-11-03T05:55:30;97922.75;;;3.58;73.96
34205;BME280;20471;49.680;20.074;2022-11-03T05:58:00;97926.45;;;3.61;73.96
34205;BME280;20471;49.680;20.074;2022-11-03T06:00:36;97928.78;;;3.60;73.89
34205;BME280;20471;49.680;20.074;2022-11-03T06:03:05;97925.77;;;3.59;73.78
34205;BME280;20471;49.680;20.074;2022-11-03T06:05:32;97928.73;;;3.56;73.84
34205;BME280;20471;49.680;20.074;2022-11-03T06:08:02;97929.72;;;3.55;73.99
34205;BME280;20471;49.680;20.074;2022-11-03T06:10:33;97931.55;;;3.54;74.01
34205;BME280;20471;49.680;20.074;2022-11-03T06:13:03;97933.04;;;3.53;74.02
34205;BME280;20471;49.680;20.074;2022-11-03T06:15:34;97934.38;;;3.53;74.01
34205;BME280;20471;49.680;20.074;2022-11-03T06:18:18;97940.36;;;3.51;73.95
34205;BME280;20471;49.680;20.074;2022-11-03T06:23:22;97929.53;;;3.52;73.98
34205;BME280;20471;49.680;20.074;2022-11-03T06:25:51;97930.37;;;3.53;74.01
34205;BME280;20471;49.680;20.074;2022-11-03T06:28:28;97925.87;;;3.53;74.20
34205;BME280;20471;49.680;20.074;2022-11-03T06:30:56;97931.36;;;3.52;74.28
34205;BME280;20471;49.680;20.074;2022-11-03T06:33:28;97930.70;;;3.50;74.49
34205;BME280;20471;49.680;20.074;2022-11-03T06:39:02;97926.02;;;3.52;74.87
34205;BME280;20471;49.680;20.074;2022-11-03T06:41:35;97926.75;;;3.58;75.01
34205;BME280;20471;49.680;20.074;2022-11-03T06:44:13;97924.42;;;3.59;75.11
34205;BME280;20471;49.680;20.074;2022-11-03T06:46:32;97930.81;;;3.66;75.28
34205;BME280;20471;49.680;20.074;2022-11-03T06:49:00;97924.86;;;3.72;75.30
34205;BME280;20471;49.680;20.074;2022-11-03T06:51:29;97926.25;;;3.80;75.38
34205;BME280;20471;49.680;20.074;2022-11-03T06:53:59;97925.64;;;3.86;75.45
34205;BME280;20471;49.680;20.074;2022-11-03T06:56:33;97921.33;;;3.93;75.54
34205;BME280;20471;49.680;20.074;2022-11-03T06:59:00;97925.19;;;3.99;75.64
34205;BME280;20471;49.680;20.074;2022-11-03T07:01:31;97922.74;;;4.06;75.63
34205;BME280;20471;49.680;20.074;2022-11-03T07:06:36;97927.02;;;4.20;75.68
34205;BME280;20471;49.680;20.074;2022-11-03T07:09:05;97927.54;;;4.28;75.79
34205;BME280;20471;49.680;20.074;2022-11-03T07:14:15;97924.95;;;4.44;75.89
34205;BME280;20471;49.680;20.074;2022-11-03T07:16:46;97926.16;;;4.54;75.96
34205;BME280;20471;49.680;20.074;2022-11-03T07:19:23;97926.86;;;4.64;76.06
34205;BME280;20471;49.680;20.074;2022-11-03T07:21:58;97924.55;;;4.73;76.09
34205;BME280;20471;49.680;20.074;2022-11-03T07:24:30;97918.56;;;4.83;76.16
34205;BME280;20471;49.680;20.074;2022-11-03T07:27:21;97912.25;;;4.92;76.14
34205;BME280;20471;49.680;20.074;2022-11-03T07:29:53;97909.27;;;5.03;76.22
34205;BME280;20471;49.680;20.074;2022-11-03T07:32:28;97909.12;;;5.17;76.28
34205;BME280;20471;49.680;20.074;2022-11-03T07:37:33;97903.94;;;5.44;76.49
34205;BME280;20471;49.680;20.074;2022-11-03T07:40:00;97905.45;;;5.59;76.51
34205;BME280;20471;49.680;20.074;2022-11-03T07:42:26;97905.45;;;5.75;76.54
34205;BME280;20471;49.680;20.074;2022-11-03T07:44:54;97904.13;;;5.91;76.53
34205;BME280;20471;49.680;20.074;2022-11-03T07:47:22;97895.04;;;6.08;76.47
34205;BME280;20471;49.680;20.074;2022-11-03T07:49:50;97895.67;;;6.27;76.46
34205;BME280;20471;49.680;20.074;2022-11-03T07:52:21;97895.94;;;6.44;76.37
34205;BME280;20471;49.680;20.074;2022-11-03T07:54:50;97887.83;;;6.60;76.26
34205;BME280;20471;49.680;20.074;2022-11-03T08:00:00;97877.58;;;6.95;76.06
34205;BME280;20471;49.680;20.074;2022-11-03T08:02:33;97871.74;;;7.14;76.02
34205;BME280;20471;49.680;20.074;2022-11-03T08:05:03;97873.29;;;7.35;75.96
34205;BME280;20471;49.680;20.074;2022-11-03T08:07:30;97869.74;;;7.57;75.92
34205;BME280;20471;49.680;20.074;2022-11-03T08:09:57;97867.19;;;7.79;75.77
34205;BME280;20471;49.680;20.074;2022-11-03T08:12:24;97864.80;;;7.99;75.61
34205;BME280;20471;49.680;20.074;2022-11-03T08:14:51;97863.08;;;8.20;75.49
34205;BME280;20471;49.680;20.074;2022-11-03T08:17:17;97857.81;;;8.42;75.37
34205;BME280;20471;49.680;20.074;2022-11-03T08:19:44;97851.70;;;8.58;75.17
34205;BME280;20471;49.680;20.074;2022-11-03T08:22:10;97846.71;;;8.81;75.30
34205;BME280;20471;49.680;20.074;2022-11-03T08:24:37;97842.00;;;9.04;75.26
34205;BME280;20471;49.680;20.074;2022-11-03T08:27:04;97836.99;;;9.22;74.94
34205;BME280;20471;49.680;20.074;2022-11-03T08:29:30;97834.80;;;9.43;74.76
34205;BME280;20471;49.680;20.074;2022-11-03T08:31:57;97822.02;;;9.62;74.24
34205;BME280;20471;49.680;20.074;2022-11-03T08:34:23;97818.63;;;9.82;74.08
34205;BME280;20471;49.680;20.074;2022-11-03T08:36:50;97812.56;;;10.01;73.59
34205;BME280;20471;49.680;20.074;2022-11-03T08:39:16;97809.48;;;10.21;73.31
34205;BME280;20471;49.680;20.074;2022-11-03T08:41:43;97800.45;;;10.42;73.03
34205;BME280;20471;49.680;20.074;2022-11-03T08:44:09;97793.05;;;10.64;72.87
34205;BME280;20471;49.680;20.074;2022-11-03T08:46:36;97789.21;;;10.86;72.51
34205;BME280;20471;49.680;20.074;2022-11-03T08:49:02;97785.10;;;11.10;72.25
34205;BME280;20471;49.680;20.074;2022-11-03T08:51:29;97784.17;;;11.27;71.63
34205;BME280;20471;49.680;20.074;2022-11-03T08:53:56;97783.77;;;11.43;70.97
34205;BME280;20471;49.680;20.074;2022-11-03T08:56:22;97777.22;;;11.54;70.83
34205;BME280;20471;49.680;20.074;2022-11-03T08:58:49;97779.09;;;11.67;70.64
34205;BME280;20471;49.680;20.074;2022-11-03T09:01:15;97769.85;;;11.79;70.49
34205;BME280;20471;49.680;20.074;2022-11-03T09:03:42;97765.25;;;11.86;69.96
34205;BME280;20471;49.680;20.074;2022-11-03T09:06:09;97759.30;;;12.00;69.70
34205;BME280;20471;49.680;20.074;2022-11-03T09:08:36;97753.75;;;12.17;69.59
34205;BME280;20471;49.680;20.074;2022-11-03T09:11:03;97753.71;;;12.30;69.21
34205;BME280;20471;49.680;20.074;2022-11-03T09:13:29;97751.13;;;12.48;68.94
34205;BME280;20471;49.680;20.074;2022-11-03T09:15:56;97746.38;;;12.59;68.28
34205;BME280;20471;49.680;20.074;2022-11-03T09:18:22;97742.16;;;12.70;67.81
34205;BME280;20471;49.680;20.074;2022-11-03T09:20:49;97747.17;;;12.89;67.98
34205;BME280;20471;49.680;20.074;2022-11-03T09:23:16;97744.42;;;13.11;67.51
34205;BME280;20471;49.680;20.074;2022-11-03T09:25:42;97740.02;;;13.32;67.23
34205;BME280;20471;49.680;20.074;2022-11-03T09:28:09;97739.03;;;13.52;66.81
34205;BME280;20471;49.680;20.074;2022-11-03T09:30:36;97737.26;;;13.64;66.14
34205;BME280;20471;49.680;20.074;2022-11-03T09:33:03;97732.45;;;13.75;65.26
34205;BME280;20471;49.680;20.074;2022-11-03T09:35:29;97734.56;;;13.82;65.35
34205;BME280;20471;49.680;20.074;2022-11-03T09:37:56;97729.84;;;13.96;65.31
34205;BME280;20471;49.680;20.074;2022-11-03T09:40:22;97725.09;;;14.10;65.53
34205;BME280;20471;49.680;20.074;2022-11-03T09:42:50;97724.95;;;14.23;64.59
34205;BME280;20471;49.680;20.074;2022-11-03T09:45:17;97724.34;;;14.21;63.50
34205;BME280;20471;49.680;20.074;2022-11-03T09:47:44;97719.22;;;14.22;63.21
34205;BME280;20471;49.680;20.074;2022-11-03T09:55:22;97709.57;;;14.44;62.80
34205;BME280;20471;49.680;20.074;2022-11-03T09:58:01;97703.78;;;14.61;62.64
34205;BME280;20471;49.680;20.074;2022-11-03T10:00:31;97697.87;;;14.83;62.61
34205;BME280;20471;49.680;20.074;2022-11-03T10:02:58;97695.82;;;15.08;62.32
34205;BME280;20471;49.680;20.074;2022-11-03T10:05:25;97688.09;;;15.26;61.95
34205;BME280;20471;49.680;20.074;2022-11-03T10:07:58;97693.79;;;15.47;61.50
34205;BME280;20471;49.680;20.074;2022-11-03T10:10:26;97690.58;;;15.71;60.96
34205;BME280;20471;49.680;20.074;2022-11-03T10:12:53;97683.72;;;15.92;59.83
34205;BME280;20471;49.680;20.074;2022-11-03T10:15:22;97679.47;;;16.10;59.38
34205;BME280;20471;49.680;20.074;2022-11-03T10:17:50;97684.80;;;16.31;58.84
34205;BME280;20471;49.680;20.074;2022-11-03T10:20:20;97676.12;;;16.46;57.88
34205;BME280;20471;49.680;20.074;2022-11-03T10:22:50;97669.48;;;16.68;57.12
34205;BME280;20471;49.680;20.074;2022-11-03T10:28:20;97666.48;;;17.12;55.97
34205;BME280;20471;49.680;20.074;2022-11-03T10:30:56;97663.42;;;17.42;55.12
34205;BME280;20471;49.680;20.074;2022-11-03T10:38:43;97648.73;;;17.98;52.96
34205;BME280;20471;49.680;20.074;2022-11-03T10:41:18;97641.91;;;18.20;52.68
34205;BME280;20471;49.680;20.074;2022-11-03T10:47:03;97633.95;;;18.62;51.66
34205;BME280;20471;49.680;20.074;2022-11-03T10:49:33;97625.78;;;18.91;50.95
34205;BME280;20471;49.680;20.074;2022-11-03T10:52:23;97625.49;;;19.22;50.77
34205;BME280;20471;49.680;20.074;2022-11-03T10:54:53;97620.73;;;19.42;49.71
34205;BME280;20471;49.680;20.074;2022-11-03T10:57:21;97614.28;;;19.53;49.34
34205;BME280;20471;49.680;20.074;2022-11-03T10:59:50;97607.50;;;19.63;48.62
34205;BME280;20471;49.680;20.074;2022-11-03T11:04:56;97597.21;;;19.86;47.78
34205;BME280;20471;49.680;20.074;2022-11-03T11:07:37;97587.91;;;19.87;47.23
34205;BME280;20471;49.680;20.074;2022-11-03T11:10:16;97580.27;;;19.96;47.08
34205;BME280;20471;49.680;20.074;2022-11-03T11:23:50;97559.70;;;20.64;43.97
34205;BME280;20471;49.680;20.074;2022-11-03T11:26:29;97554.48;;;20.72;44.05
34205;BME280;20471;49.680;20.074;2022-11-03T11:31:43;97543.79;;;21.04;43.68
34205;BME280;20471;49.680;20.074;2022-11-03T11:58:03;97484.23;;;21.30;41.01
34205;BME280;20471;49.680;20.074;2022-11-03T12:00:33;97487.22;;;21.41;40.77
34205;BME280;20471;49.680;20.074;2022-11-03T12:03:01;97483.95;;;21.34;40.59
34205;BME280;20471;49.680;20.074;2022-11-03T12:05:31;97477.91;;;21.37;40.16
34205;BME280;20471;49.680;20.074;2022-11-03T12:07:59;97468.85;;;21.34;40.09
34205;BME280;20471;49.680;20.074;2022-11-03T12:10:30;97467.75;;;21.35;39.72
34205;BME280;20471;49.680;20.074;2022-11-03T12:12:58;97465.28;;;21.31;39.74
34205;BME280;20471;49.680;20.074;2022-11-03T12:15:54;97460.62;;;21.34;39.65
34205;BME280;20471;49.680;20.074;2022-11-03T12:18:41;97464.15;;;21.47;39.61
34205;BME280;20471;49.680;20.074;2022-11-03T12:21:45;97457.24;;;21.57;39.06
34205;BME280;20471;49.680;20.074;2022-11-03T12:23:46;97449.05;;;21.42;38.80
34205;BME280;20471;49.680;20.074;2022-11-03T12:28:56;97445.47;;;21.49;38.48
34205;BME280;20471;49.680;20.074;2022-11-03T12:31:22;97437.20;;;21.54;38.45
34205;BME280;20471;49.680;20.074;2022-11-03T12:33:49;97441.31;;;21.54;38.00
34205;BME280;20471;49.680;20.074;2022-11-03T12:36:15;97436.09;;;21.60;38.39
34205;BME280;20471;49.680;20.074;2022-11-03T12:38:42;97430.54;;;21.73;37.64
34205;BME280;20471;49.680;20.074;2022-11-03T12:41:09;97428.02;;;21.76;37.01
34205;BME280;20471;49.680;20.074;2022-11-03T12:43:52;97421.16;;;21.76;36.86
34205;BME280;20471;49.680;20.074;2022-11-03T12:46:21;97421.41;;;21.82;36.09
34205;BME280;20471;49.680;20.074;2022-11-03T12:48:48;97410.42;;;21.82;36.63
34205;BME280;20471;49.680;20.074;2022-11-03T12:51:18;97402.12;;;21.92;36.38
34205;BME280;20471;49.680;20.074;2022-11-03T12:53:45;97405.63;;;22.08;36.29
34205;BME280;20471;49.680;20.074;2022-11-03T12:56:14;97401.66;;;22.22;36.24
34205;BME280;20471;49.680;20.074;2022-11-03T12:58:41;97397.75;;;22.33;36.16
34205;BME280;20471;49.680;20.074;2022-11-03T13:01:08;97397.48;;;22.32;36.06
34205;BME280;20471;49.680;20.074;2022-11-03T13:03:36;97392.02;;;22.27;36.14
34205;BME280;20471;49.680;20.074;2022-11-03T13:06:04;97387.62;;;22.26;35.97
34205;BME280;20471;49.680;20.074;2022-11-03T13:08:33;97386.24;;;22.26;35.95
34205;BME280;20471;49.680;20.074;2022-11-03T13:10:59;97390.89;;;22.31;35.85
34205;BME280;20471;49.680;20.074;2022-11-03T13:13:26;97386.22;;;22.31;35.69
34205;BME280;20471;49.680;20.074;2022-11-03T13:15:53;97379.84;;;22.36;35.31
34205;BME280;20471;49.680;20.074;2022-11-03T13:18:20;97380.46;;;22.27;34.98
34205;BME280;20471;49.680;20.074;2022-11-03T13:20:47;97377.98;;;22.28;34.97
34205;BME280;20471;49.680;20.074;2022-11-03T13:23:14;97377.73;;;22.25;34.88
34205;BME280;20471;49.680;20.074;2022-11-03T13:25:42;97373.40;;;22.16;35.23
34205;BME280;20471;49.680;20.074;2022-11-03T13:28:11;97370.28;;;22.28;35.06
34205;BME280;20471;49.680;20.074;2022-11-03T13:30:37;97364.26;;;22.23;35.21
34205;BME280;20471;49.680;20.074;2022-11-03T13:33:05;97362.69;;;22.15;35.15
34205;BME280;20471;49.680;20.074;2022-11-03T13:35:31;97355.63;;;22.04;34.85
34205;BME280;20471;49.680;20.074;2022-11-03T13:37:58;97352.88;;;22.04;35.01
34205;BME280;20471;49.680;20.074;2022-11-03T13:40:24;97354.70;;;22.18;34.58
34205;BME280;20471;49.680;20.074;2022-11-03T13:42:51;97358.82;;;22.18;34.42
34205;BME280;20471;49.680;20.074;2022-11-03T13:45:18;97346.22;;;22.10;34.57
34205;BME280;20471;49.680;20.074;2022-11-03T13:47:44;97352.31;;;22.07;34.84
34205;BME280;20471;49.680;20.074;2022-11-03T13:50:11;97342.34;;;22.16;34.42
34205;BME280;20471;49.680;20.074;2022-11-03T13:52:37;97337.47;;;22.08;34.58
34205;BME280;20471;49.680;20.074;2022-11-03T13:55:05;97340.02;;;21.91;34.59
34205;BME280;20471;49.680;20.074;2022-11-03T13:57:31;97338.38;;;21.90;34.55
34205;BME280;20471;49.680;20.074;2022-11-03T13:59:58;97331.23;;;21.89;34.31
34205;BME280;20471;49.680;20.074;2022-11-03T14:02:25;97329.59;;;21.86;34.33
34205;BME280;20471;49.680;20.074;2022-11-03T14:04:51;97329.92;;;21.82;34.34
34205;BME280;20471;49.680;20.074;2022-11-03T14:07:18;97320.30;;;21.84;34.05
34205;BME280;20471;49.680;20.074;2022-11-03T14:09:44;97318.75;;;21.66;34.95
34205;BME280;20471;49.680;20.074;2022-11-03T14:12:12;97314.02;;;21.30;35.11
34205;BME280;20471;49.680;20.074;2022-11-03T14:17:30;97314.48;;;20.67;36.54
34205;BME280;20471;49.680;20.074;2022-11-03T14:19:57;97311.52;;;20.51;36.42
34205;BME280;20471;49.680;20.074;2022-11-03T14:22:23;97299.44;;;20.32;36.58
34205;BME280;20471;49.680;20.074;2022-11-03T14:24:50;97300.03;;;20.16;36.39
34205;BME280;20471;49.680;20.074;2022-11-03T14:27:18;97297.83;;;20.00;37.18
34205;BME280;20471;49.680;20.074;2022-11-03T14:29:45;97286.02;;;19.69;37.78
34205;BME280;20471;49.680;20.074;2022-11-03T14:32:13;97296.42;;;19.52;37.95
34205;BME280;20471;49.680;20.074;2022-11-03T14:34:40;97293.87;;;19.28;38.38
34205;BME280;20471;49.680;20.074;2022-11-03T14:37:07;97263.56;;;18.72;38.86
34205;BME280;20471;49.680;20.074;2022-11-03T14:39:34;97263.56;;;18.72;38.86
34205;BME280;20471;49.680;20.074;2022-11-03T14:42:06;97277.72;;;18.61;39.17
34205;BME280;20471;49.680;20.074;2022-11-03T14:44:38;97283.03;;;18.39;39.70
34205;BME280;20471;49.680;20.074;2022-11-03T14:47:07;97281.78;;;18.14;40.16
34205;BME280;20471;49.680;20.074;2022-11-03T14:49:35;97278.09;;;17.93;40.54
34205;BME280;20471;49.680;20.074;2022-11-03T14:52:03;97286.57;;;17.65;41.00
34205;BME280;20471;49.680;20.074;2022-11-03T14:54:32;97290.38;;;17.37;41.38
34205;BME280;20471;49.680;20.074;2022-11-03T14:56:59;97285.73;;;17.11;42.05
34205;BME280;20471;49.680;20.074;2022-11-03T14:59:26;97286.30;;;16.91;42.50
34205;BME280;20471;49.680;20.074;2022-11-03T15:01:54;97281.14;;;16.70;42.90
34205;BME280;20471;49.680;20.074;2022-11-03T15:04:21;97280.53;;;16.46;43.00
34205;BME280;20471;49.680;20.074;2022-11-03T15:06:49;97284.00;;;16.03;43.18
34205;BME280;20471;49.680;20.074;2022-11-03T15:09:15;97284.56;;;15.72;43.58
34205;BME280;20471;49.680;20.074;2022-11-03T15:11:43;97287.20;;;15.53;44.04
34205;BME280;20471;49.680;20.074;2022-11-03T15:14:10;97291.25;;;15.36;44.29
34205;BME280;20471;49.680;20.074;2022-11-03T15:16:36;97287.86;;;15.00;44.64